sensor_id;sensor_type;location;lat;lon;timestamp;pressure;altitude;pressure_sealevel;temperature;humidity
11349;BME280;5729;43.570;27.826;2023-06-14T00:01:01;98753.31;;;18.72;100.00
11349;BME280;5729;43.570;27.826;2023-06-14T00:03:28;98753.72;;;18.71;100.00
11349;BME280;5729;43.570;27.826;2023-06-14T00:05:54;98761.50;;;18.72;100.00
11349;BME280;5729;43.570;27.826;2023-06-14T00:08:19;98761.91;;;18.71;100.00
11349;BME280;5729;43.570;27.826;2023-06-14T00:10:46;98755.47;;;18.61;100.00
11349;BME280;5729;43.570;27.826;2023-06-14T00:13:11;98745.38;;;18.58;100.00
11349;BME280;5729;43.570;27.826;2023-06-14T00:15:37;98750.44;;;18.56;100.00
11349;BME280;5729;43.570;27.826;2023-06-14T00:18:04;98740.00;;;18.51;100.00
11349;BME280;5729;43.570;27.826;2023-06-14T00:20:31;98747.34;;;18.54;100.00
11349;BME280;5729;43.570;27.826;2023-06-14T00:22:58;98747.75;;;18.52;100.00
11349;BME280;5729;43.570;27.826;2023-06-14T00:25:24;98749.72;;;18.52;100.00
11349;BME280;5729;43.570;27.826;2023-06-14T00:27:56;98750.50;;;18.52;100.00
11349;BME280;5729;43.570;27.826;2023-06-14T00:30:21;98744.75;;;18.47;100.00
11349;BME280;5729;43.570;27.826;2023-06-14T00:32:47;98749.81;;;18.48;100.00
11349;BME280;5729;43.570;27.826;2023-06-14T00:35:13;98746.72;;;18.46;100.00
11349;BME280;5729;43.570;27.826;2023-06-14T00:37:39;98750.28;;;18.43;100.00
11349;BME280;5729;43.570;27.826;2023-06-14T00:40:06;98745.22;;;18.42;100.00
11349;BME280;5729;43.570;27.826;2023-06-14T00:42:32;98754.25;;;18.39;100.00
11349;BME280;5729;43.570;27.826;2023-06-14T00:44:57;98742.22;;;18.36;100.00
11349;BME280;5729;43.570;27.826;2023-06-14T00:47:23;98739.19;;;18.31;100.00
11349;BME280;5729;43.570;27.826;2023-06-14T00:49:50;98745.50;;;18.28;100.00
11349;BME280;5729;43.570;27.826;2023-06-14T00:52:19;98739.72;;;18.22;100.00
11349;BME280;5729;43.570;27.826;2023-06-14T00:54:44;98739.31;;;18.24;100.00
11349;BME280;5729;43.570;27.826;2023-06-14T00:57:10;98744.41;;;18.22;100.00
11349;BME280;5729;43.570;27.826;2023-06-14T00:59:48;98738.59;;;18.20;100.00
11349;BME280;5729;43.570;27.826;2023-06-14T01:02:14;98746.00;;;18.19;100.00
11349;BME280;5729;43.570;27.826;2023-06-14T01:04:45;98738.34;;;18.10;100.00
11349;BME280;5729;43.570;27.826;2023-06-14T01:15:36;98742.28;;;18.09;100.00
11349;BME280;5729;43.570;27.826;2023-06-14T01:18:04;98736.53;;;18.04;100.00
11349;BME280;5729;43.570;27.826;2023-06-14T01:20:31;98741.56;;;18.05;100.00
11349;BME280;5729;43.570;27.826;2023-06-14T01:22:58;98748.25;;;18.01;100.00
11349;BME280;5729;43.570;27.826;2023-06-14T01:25:24;98748.53;;;17.83;100.00
11349;BME280;5729;43.570;27.826;2023-06-14T01:27:53;98743.75;;;17.91;100.00
11349;BME280;5729;43.570;27.826;2023-06-14T01:30:21;98744.56;;;17.88;100.00
11349;BME280;5729;43.570;27.826;2023-06-14T01:32:49;98744.19;;;17.86;100.00
11349;BME280;5729;43.570;27.826;2023-06-14T01:35:15;98744.56;;;17.88;100.00
11349;BME280;5729;43.570;27.826;2023-06-14T01:37:42;98745.34;;;17.88;100.00
11349;BME280;5729;43.570;27.826;2023-06-14T01:40:09;98728.78;;;17.75;100.00
11349;BME280;5729;43.570;27.826;2023-06-14T01:42:37;98740.38;;;17.83;100.00
11349;BME280;5729;43.570;27.826;2023-06-14T01:45:04;98741.19;;;17.80;100.00
11349;BME280;5729;43.570;27.826;2023-06-14T01:47:31;98753.22;;;17.83;100.00
11349;BME280;5729;43.570;27.826;2023-06-14T01:49:58;98752.44;;;17.82;100.00
11349;BME280;5729;43.570;27.826;2023-06-14T01:52:23;98737.38;;;17.74;100.00
11349;BME280;5729;43.570;27.826;2023-06-14T01:54:52;98748.19;;;17.81;100.00
11349;BME280;5729;43.570;27.826;2023-06-14T01:57:18;98749.44;;;17.73;100.00
11349;BME280;5729;43.570;27.826;2023-06-14T01:59:43;98754.13;;;17.72;100.00
11349;BME280;5729;43.570;27.826;2023-06-14T02:02:14;98752.16;;;17.73;100.00
11349;BME280;5729;43.570;27.826;2023-06-14T02:04:40;98746.06;;;17.62;100.00
11349;BME280;5729;43.570;27.826;2023-06-14T02:07:06;98750.28;;;17.70;100.00
11349;BME280;5729;43.570;27.826;2023-06-14T02:09:31;98758.06;;;17.71;100.00
11349;BME280;5729;43.570;27.826;2023-06-14T02:11:57;98742.44;;;17.72;100.00
11349;BME280;5729;43.570;27.826;2023-06-14T02:14:23;98748.75;;;17.69;100.00
11349;BME280;5729;43.570;27.826;2023-06-14T02:16:48;98744.09;;;17.66;100.00
11349;BME280;5729;43.570;27.826;2023-06-14T02:19:17;98751.91;;;17.64;100.00
11349;BME280;5729;43.570;27.826;2023-06-14T02:21:43;98736.84;;;17.56;100.00
11349;BME280;5729;43.570;27.826;2023-06-14T02:24:09;98755.41;;;17.64;100.00
11349;BME280;5729;43.570;27.826;2023-06-14T02:26:35;98757.41;;;17.60;100.00
11349;BME280;5729;43.570;27.826;2023-06-14T02:29:00;98744.28;;;17.52;100.00
11349;BME280;5729;43.570;27.826;2023-06-14T02:31:26;98754.72;;;17.57;100.00
11349;BME280;5729;43.570;27.826;2023-06-14T02:33:52;98739.66;;;17.49;100.00
11349;BME280;5729;43.570;27.826;2023-06-14T02:36:18;98755.16;;;17.52;100.00
11349;BME280;5729;43.570;27.826;2023-06-14T02:38:43;98754.19;;;17.38;100.00
11349;BME280;5729;43.570;27.826;2023-06-14T02:41:10;98746.88;;;17.32;100.00
11349;BME280;5729;43.570;27.826;2023-06-14T02:43:35;98765.03;;;17.42;100.00
11349;BME280;5729;43.570;27.826;2023-06-14T02:46:01;98760.75;;;17.41;100.00
11349;BME280;5729;43.570;27.826;2023-06-14T02:48:27;98740.63;;;17.35;100.00
11349;BME280;5729;43.570;27.826;2023-06-14T02:50:53;98748.28;;;17.43;100.00
11349;BME280;5729;43.570;27.826;2023-06-14T02:53:18;98746.38;;;17.40;100.00
11349;BME280;5729;43.570;27.826;2023-06-14T02:55:43;98763.41;;;17.48;100.00
11349;BME280;5729;43.570;27.826;2023-06-14T03:13:00;98779.63;;;17.86;100.00
11349;BME280;5729;43.570;27.826;2023-06-14T03:15:26;98778.22;;;17.77;100.00
11349;BME280;5729;43.570;27.826;2023-06-14T03:17:52;98777.53;;;17.70;100.00
11349;BME280;5729;43.570;27.826;2023-06-14T03:20:18;98784.63;;;17.64;100.00
11349;BME280;5729;43.570;27.826;2023-06-14T03:22:44;98787.78;;;17.59;100.00
11349;BME280;5729;43.570;27.826;2023-06-14T03:25:11;98793.28;;;17.55;100.00
11349;BME280;5729;43.570;27.826;2023-06-14T03:27:36;98789.81;;;17.51;100.00
11349;BME280;5729;43.570;27.826;2023-06-14T03:30:02;98801.97;;;17.47;100.00
11349;BME280;5729;43.570;27.826;2023-06-14T03:32:27;98797.31;;;17.43;100.00
11349;BME280;5729;43.570;27.826;2023-06-14T03:34:53;98802.41;;;17.41;100.00
11349;BME280;5729;43.570;27.826;2023-06-14T03:37:19;98789.97;;;17.40;100.00
11349;BME280;5729;43.570;27.826;2023-06-14T03:39:44;98788.06;;;17.37;100.00
11349;BME280;5729;43.570;27.826;2023-06-14T03:42:13;98781.91;;;17.30;100.00
11349;BME280;5729;43.570;27.826;2023-06-14T03:44:38;98786.69;;;17.22;100.00
11349;BME280;5729;43.570;27.826;2023-06-14T03:47:04;98786.22;;;17.27;100.00
11349;BME280;5729;43.570;27.826;2023-06-14T03:49:29;98786.66;;;17.26;100.00
11349;BME280;5729;43.570;27.826;2023-06-14T03:51:55;98799.06;;;17.27;100.00
11349;BME280;5729;43.570;27.826;2023-06-14T03:54:21;98796.72;;;17.29;100.00
11349;BME280;5729;43.570;27.826;2023-06-14T03:56:47;98802.94;;;17.29;100.00
11349;BME280;5729;43.570;27.826;2023-06-14T03:59:12;98799.44;;;17.29;100.00
11349;BME280;5729;43.570;27.826;2023-06-14T04:01:38;98799.44;;;17.29;100.00
11349;BME280;5729;43.570;27.826;2023-06-14T04:04:10;98802.94;;;17.29;100.00
11349;BME280;5729;43.570;27.826;2023-06-14T04:06:35;98796.34;;;17.27;100.00
11349;BME280;5729;43.570;27.826;2023-06-14T04:09:00;98794.34;;;17.31;100.00
11349;BME280;5729;43.570;27.826;2023-06-14T04:11:27;98798.22;;;17.33;100.00
11349;BME280;5729;43.570;27.826;2023-06-14T04:13:53;98795.88;;;17.35;100.00
11349;BME280;5729;43.570;27.826;2023-06-14T04:16:19;98794.69;;;17.36;100.00
11349;BME280;5729;43.570;27.826;2023-06-14T04:18:44;98759.56;;;17.15;100.00
11349;BME280;5729;43.570;27.826;2023-06-14T04:21:12;98805.13;;;17.41;100.00
11349;BME280;5729;43.570;27.826;2023-06-14T04:23:37;98809.75;;;17.45;100.00
11349;BME280;5729;43.570;27.826;2023-06-14T04:26:03;98804.31;;;17.45;100.00
11349;BME280;5729;43.570;27.826;2023-06-14T04:28:30;98809.28;;;17.50;100.00
11349;BME280;5729;43.570;27.826;2023-06-14T04:30:55;98808.09;;;17.54;100.00
11349;BME280;5729;43.570;27.826;2023-06-14T04:33:21;98819.34;;;17.56;100.00
11349;BME280;5729;43.570;27.826;2023-06-14T04:35:48;98825.09;;;17.65;100.00
11349;BME280;5729;43.570;27.826;2023-06-14T04:38:13;98815.63;;;17.73;100.00
11349;BME280;5729;43.570;27.826;2023-06-14T04:40:41;98815.56;;;17.81;100.00
11349;BME280;5729;43.570;27.826;2023-06-14T04:43:11;98812.47;;;17.78;100.00
11349;BME280;5729;43.570;27.826;2023-06-14T04:45:40;98833.34;;;17.89;100.00
11349;BME280;5729;43.570;27.826;2023-06-14T04:48:06;98828.56;;;17.96;100.00
11349;BME280;5729;43.570;27.826;2023-06-14T04:50:32;98832.31;;;18.06;100.00
11349;BME280;5729;43.570;27.826;2023-06-14T04:52:58;98808.97;;;18.05;100.00
11349;BME280;5729;43.570;27.826;2023-06-14T04:55:25;98822.78;;;18.18;100.00
11349;BME280;5729;43.570;27.826;2023-06-14T04:57:51;98830.75;;;18.32;100.00
11349;BME280;5729;43.570;27.826;2023-06-14T05:00:19;98826.72;;;18.40;100.00
11349;BME280;5729;43.570;27.826;2023-06-14T05:02:45;98830.81;;;18.51;100.00
11349;BME280;5729;43.570;27.826;2023-06-14T05:05:12;98834.69;;;18.54;100.00
11349;BME280;5729;43.570;27.826;2023-06-14T05:07:38;98840.00;;;18.65;100.00
11349;BME280;5729;43.570;27.826;2023-06-14T05:10:04;98837.97;;;18.69;100.00
11349;BME280;5729;43.570;27.826;2023-06-14T05:12:30;98841.94;;;18.64;100.00
11349;BME280;5729;43.570;27.826;2023-06-14T05:14:55;98840.66;;;18.72;100.00
11349;BME280;5729;43.570;27.826;2023-06-14T05:17:23;98846.34;;;18.81;100.00
11349;BME280;5729;43.570;27.826;2023-06-14T05:19:49;98848.31;;;18.81;100.00
11349;BME280;5729;43.570;27.826;2023-06-14T05:22:14;98847.59;;;18.77;100.00
11349;BME280;5729;43.570;27.826;2023-06-14T05:24:40;98850.25;;;18.80;100.00
11349;BME280;5729;43.570;27.826;2023-06-14T05:27:07;98858.31;;;18.88;100.00
11349;BME280;5729;43.570;27.826;2023-06-14T05:29:32;98855.53;;;18.91;100.00
11349;BME280;5729;43.570;27.826;2023-06-14T05:31:58;98852.81;;;18.91;100.00
11349;BME280;5729;43.570;27.826;2023-06-14T05:34:23;98850.34;;;18.97;100.00
11349;BME280;5729;43.570;27.826;2023-06-14T05:36:49;98854.28;;;18.96;100.00
11349;BME280;5729;43.570;27.826;2023-06-14T05:39:15;98857.50;;;18.91;100.00
11349;BME280;5729;43.570;27.826;2023-06-14T05:41:40;98865.53;;;18.98;100.00
11349;BME280;5729;43.570;27.826;2023-06-14T05:44:05;98863.84;;;19.07;100.00
11349;BME280;5729;43.570;27.826;2023-06-14T05:46:32;98867.97;;;19.15;100.00
11349;BME280;5729;43.570;27.826;2023-06-14T05:48:58;98870.16;;;19.24;100.00
11349;BME280;5729;43.570;27.826;2023-06-14T05:51:23;98880.25;;;19.27;100.00
11349;BME280;5729;43.570;27.826;2023-06-14T05:53:50;98877.72;;;19.36;100.00
11349;BME280;5729;43.570;27.826;2023-06-14T05:56:17;98877.72;;;19.36;100.00
11349;BME280;5729;43.570;27.826;2023-06-14T05:58:43;98888.50;;;19.43;100.00
11349;BME280;5729;43.570;27.826;2023-06-14T06:01:09;98872.09;;;19.43;100.00
11349;BME280;5729;43.570;27.826;2023-06-14T06:03:34;98875.84;;;19.53;100.00
11349;BME280;5729;43.570;27.826;2023-06-14T06:06:00;98881.75;;;19.51;100.00
11349;BME280;5729;43.570;27.826;2023-06-14T06:08:26;98876.50;;;19.61;100.00
11349;BME280;5729;43.570;27.826;2023-06-14T06:10:52;98875.66;;;19.64;100.00
11349;BME280;5729;43.570;27.826;2023-06-14T06:13:18;98874.19;;;19.59;100.00
11349;BME280;5729;43.570;27.826;2023-06-14T06:15:43;98872.69;;;19.74;100.00
11349;BME280;5729;43.570;27.826;2023-06-14T06:18:09;98875.88;;;19.89;100.00
11349;BME280;5729;43.570;27.826;2023-06-14T06:20:34;98889.00;;;19.98;100.00
11349;BME280;5729;43.570;27.826;2023-06-14T06:23:01;98864.81;;;19.96;100.00
11349;BME280;5729;43.570;27.826;2023-06-14T06:25:27;98865.91;;;19.99;100.00
11349;BME280;5729;43.570;27.826;2023-06-14T06:27:55;98885.53;;;20.13;100.00
11349;BME280;5729;43.570;27.826;2023-06-14T06:30:24;98878.44;;;20.16;100.00
11349;BME280;5729;43.570;27.826;2023-06-14T06:32:50;98877.59;;;20.19;100.00
11349;BME280;5729;43.570;27.826;2023-06-14T06:35:16;98872.28;;;20.28;100.00
11349;BME280;5729;43.570;27.826;2023-06-14T06:37:42;98881.72;;;20.43;100.00
11349;BME280;5729;43.570;27.826;2023-06-14T06:40:08;98885.09;;;20.51;100.00
11349;BME280;5729;43.570;27.826;2023-06-14T06:42:34;98880.97;;;20.59;100.00
11349;BME280;5729;43.570;27.826;2023-06-14T06:45:00;98885.19;;;20.63;100.00
11349;BME280;5729;43.570;27.826;2023-06-14T06:47:25;98878.41;;;20.68;100.00
11349;BME280;5729;43.570;27.826;2023-06-14T06:49:51;98881.75;;;20.76;100.00
11349;BME280;5729;43.570;27.826;2023-06-14T06:52:16;98880.72;;;20.86;100.00
11349;BME280;5729;43.570;27.826;2023-06-14T06:54:42;98875.72;;;20.97;100.00
11349;BME280;5729;43.570;27.826;2023-06-14T06:57:07;98883.13;;;21.13;100.00
11349;BME280;5729;43.570;27.826;2023-06-14T06:59:33;98874.34;;;21.21;100.00
11349;BME280;5729;43.570;27.826;2023-06-14T07:01:59;98876.19;;;21.53;100.00
11349;BME280;5729;43.570;27.826;2023-06-14T07:04:24;98876.44;;;21.71;100.00
11349;BME280;5729;43.570;27.826;2023-06-14T07:06:50;98876.25;;;21.91;100.00
11349;BME280;5729;43.570;27.826;2023-06-14T07:09:16;98881.91;;;22.13;100.00
11349;BME280;5729;43.570;27.826;2023-06-14T07:11:43;98874.34;;;22.30;100.00
11349;BME280;5729;43.570;27.826;2023-06-14T07:14:09;98874.53;;;22.48;100.00
11349;BME280;5729;43.570;27.826;2023-06-14T07:16:34;98881.34;;;22.56;100.00
11349;BME280;5729;43.570;27.826;2023-06-14T07:19:01;98879.47;;;22.53;100.00
11349;BME280;5729;43.570;27.826;2023-06-14T07:21:27;98881.09;;;22.63;100.00
11349;BME280;5729;43.570;27.826;2023-06-14T07:23:53;98876.91;;;22.71;100.00
11349;BME280;5729;43.570;27.826;2023-06-14T07:26:19;98890.22;;;22.86;100.00
11349;BME280;5729;43.570;27.826;2023-06-14T07:28:46;98888.28;;;23.08;100.00
11349;BME280;5729;43.570;27.826;2023-06-14T07:31:14;98877.03;;;23.37;100.00
11349;BME280;5729;43.570;27.826;2023-06-14T07:33:41;98882.63;;;23.46;100.00
11349;BME280;5729;43.570;27.826;2023-06-14T07:36:07;98892.63;;;23.52;100.00
11349;BME280;5729;43.570;27.826;2023-06-14T07:38:33;98895.59;;;23.58;100.00
11349;BME280;5729;43.570;27.826;2023-06-14T07:40:59;98889.75;;;23.56;100.00
11349;BME280;5729;43.570;27.826;2023-06-14T07:43:24;98896.16;;;23.53;100.00
11349;BME280;5729;43.570;27.826;2023-06-14T07:45:50;98880.41;;;23.53;100.00
11349;BME280;5729;43.570;27.826;2023-06-14T07:48:17;98893.34;;;23.66;100.00
11349;BME280;5729;43.570;27.826;2023-06-14T07:50:43;98891.66;;;23.68;100.00
11349;BME280;5729;43.570;27.826;2023-06-14T07:53:08;98887.75;;;23.78;100.00
11349;BME280;5729;43.570;27.826;2023-06-14T07:55:34;98894.41;;;23.90;100.00
11349;BME280;5729;43.570;27.826;2023-06-14T07:58:06;98892.59;;;23.96;100.00
11349;BME280;5729;43.570;27.826;2023-06-14T08:00:31;98893.09;;;24.04;100.00
11349;BME280;5729;43.570;27.826;2023-06-14T08:02:57;98881.47;;;24.09;100.00
11349;BME280;5729;43.570;27.826;2023-06-14T08:05:25;98894.75;;;24.32;100.00
11349;BME280;5729;43.570;27.826;2023-06-14T08:07:52;98902.63;;;25.28;100.00
11349;BME280;5729;43.570;27.826;2023-06-14T08:10:18;98894.00;;;26.65;100.00
11349;BME280;5729;43.570;27.826;2023-06-14T08:12:45;98893.94;;;27.90;100.00
11349;BME280;5729;43.570;27.826;2023-06-14T08:15:11;98899.19;;;29.28;100.00
11349;BME280;5729;43.570;27.826;2023-06-14T08:17:36;98896.09;;;29.67;100.00
11349;BME280;5729;43.570;27.826;2023-06-14T08:20:02;98901.81;;;30.15;90.91
11349;BME280;5729;43.570;27.826;2023-06-14T08:22:30;98909.19;;;29.92;79.33
11349;BME280;5729;43.570;27.826;2023-06-14T08:25:02;98908.88;;;29.58;96.70
11349;BME280;5729;43.570;27.826;2023-06-14T08:27:27;98902.41;;;29.01;96.48
11349;BME280;5729;43.570;27.826;2023-06-14T08:29:53;98905.16;;;29.41;87.90
11349;BME280;5729;43.570;27.826;2023-06-14T08:32:18;98900.41;;;30.30;89.11
11349;BME280;5729;43.570;27.826;2023-06-14T08:34:44;98897.84;;;30.21;72.12
11349;BME280;5729;43.570;27.826;2023-06-14T08:37:09;98898.28;;;30.14;85.86
11349;BME280;5729;43.570;27.826;2023-06-14T08:39:35;98894.69;;;30.08;81.02
11349;BME280;5729;43.570;27.826;2023-06-14T08:42:02;98895.41;;;30.03;85.22
11349;BME280;5729;43.570;27.826;2023-06-14T08:44:29;98901.56;;;30.13;79.30
11349;BME280;5729;43.570;27.826;2023-06-14T08:46:56;98898.59;;;29.65;81.74
11349;BME280;5729;43.570;27.826;2023-06-14T08:49:24;98900.81;;;29.60;79.55
11349;BME280;5729;43.570;27.826;2023-06-14T08:51:59;98884.44;;;30.57;83.32
11349;BME280;5729;43.570;27.826;2023-06-14T08:54:27;98893.56;;;31.11;80.86
11349;BME280;5729;43.570;27.826;2023-06-14T08:56:55;98882.84;;;32.19;74.66
11349;BME280;5729;43.570;27.826;2023-06-14T08:59:25;98884.81;;;33.73;56.14
11349;BME280;5729;43.570;27.826;2023-06-14T09:01:51;98886.41;;;35.20;45.72
11349;BME280;5729;43.570;27.826;2023-06-14T09:04:18;98891.75;;;35.18;46.44
11349;BME280;5729;43.570;27.826;2023-06-14T09:06:45;98884.50;;;35.10;54.71
11349;BME280;5729;43.570;27.826;2023-06-14T09:09:10;98883.59;;;35.20;43.87
11349;BME280;5729;43.570;27.826;2023-06-14T09:11:36;98888.72;;;36.05;46.32
11349;BME280;5729;43.570;27.826;2023-06-14T09:14:02;98876.31;;;36.71;43.92
11349;BME280;5729;43.570;27.826;2023-06-14T09:16:27;98882.19;;;37.21;39.47
11349;BME280;5729;43.570;27.826;2023-06-14T09:18:53;98872.22;;;36.14;38.25
11349;BME280;5729;43.570;27.826;2023-06-14T09:21:19;98873.78;;;34.89;40.53
11349;BME280;5729;43.570;27.826;2023-06-14T09:23:47;98875.06;;;33.44;40.88
11349;BME280;5729;43.570;27.826;2023-06-14T09:26:18;98868.75;;;32.86;45.94
11349;BME280;5729;43.570;27.826;2023-06-14T09:28:48;98870.91;;;33.15;47.08
11349;BME280;5729;43.570;27.826;2023-06-14T09:31:19;98861.28;;;33.16;47.40
11349;BME280;5729;43.570;27.826;2023-06-14T09:33:46;98851.44;;;33.51;58.65
11349;BME280;5729;43.570;27.826;2023-06-14T09:36:21;98865.22;;;33.38;49.53
11349;BME280;5729;43.570;27.826;2023-06-14T09:38:54;98861.75;;;32.57;52.28
11349;BME280;5729;43.570;27.826;2023-06-14T09:41:26;98862.75;;;32.60;58.70
11349;BME280;5729;43.570;27.826;2023-06-14T09:43:57;98860.06;;;33.01;56.33
11349;BME280;5729;43.570;27.826;2023-06-14T09:46:26;98872.38;;;33.22;51.17
11349;BME280;5729;43.570;27.826;2023-06-14T09:48:52;98864.84;;;33.52;62.52
11349;BME280;5729;43.570;27.826;2023-06-14T09:51:18;98864.91;;;34.12;56.01
11349;BME280;5729;43.570;27.826;2023-06-14T09:53:46;98859.06;;;35.08;44.32
11349;BME280;5729;43.570;27.826;2023-06-14T09:56:37;98855.56;;;35.20;50.62
11349;BME280;5729;43.570;27.826;2023-06-14T09:59:05;98862.75;;;34.97;42.37
11349;BME280;5729;43.570;27.826;2023-06-14T10:01:31;98867.28;;;33.73;45.24
11349;BME280;5729;43.570;27.826;2023-06-14T10:04:05;98865.53;;;33.64;57.59
11349;BME280;5729;43.570;27.826;2023-06-14T10:06:32;98863.41;;;34.11;60.29
11349;BME280;5729;43.570;27.826;2023-06-14T10:09:00;98863.16;;;34.39;52.21
11349;BME280;5729;43.570;27.826;2023-06-14T10:11:27;98861.41;;;33.76;49.15
11349;BME280;5729;43.570;27.826;2023-06-14T10:13:54;98861.78;;;33.15;53.29
11349;BME280;5729;43.570;27.826;2023-06-14T10:18:53;98864.78;;;34.29;49.15
11349;BME280;5729;43.570;27.826;2023-06-14T10:24:17;98865.25;;;34.57;48.04
11349;BME280;5729;43.570;27.826;2023-06-14T10:26:51;98866.59;;;34.21;46.66
11349;BME280;5729;43.570;27.826;2023-06-14T10:29:17;98865.13;;;33.90;49.64
11349;BME280;5729;43.570;27.826;2023-06-14T10:31:47;98861.13;;;34.10;45.99
11349;BME280;5729;43.570;27.826;2023-06-14T10:34:24;98859.50;;;33.54;49.58
11349;BME280;5729;43.570;27.826;2023-06-14T10:37:12;98862.00;;;32.59;49.08
11349;BME280;5729;43.570;27.826;2023-06-14T10:39:42;98856.75;;;32.17;54.01
11349;BME280;5729;43.570;27.826;2023-06-14T10:42:09;98846.59;;;32.36;75.56
11349;BME280;5729;43.570;27.826;2023-06-14T10:44:43;98858.53;;;33.00;61.36
11349;BME280;5729;43.570;27.826;2023-06-14T10:47:21;98849.06;;;33.61;53.67
11349;BME280;5729;43.570;27.826;2023-06-14T10:52:27;98861.63;;;34.63;45.73
11349;BME280;5729;43.570;27.826;2023-06-14T10:57:36;98851.25;;;35.19;45.99
11349;BME280;5729;43.570;27.826;2023-06-14T11:00:03;98860.63;;;35.59;47.99
11349;BME280;5729;43.570;27.826;2023-06-14T11:05:31;98858.84;;;36.07;46.59
11349;BME280;5729;43.570;27.826;2023-06-14T11:11:00;98861.06;;;36.67;45.16
11349;BME280;5729;43.570;27.826;2023-06-14T11:13:30;98869.81;;;36.50;39.69
11349;BME280;5729;43.570;27.826;2023-06-14T11:15:56;98857.06;;;36.62;45.44
11349;BME280;5729;43.570;27.826;2023-06-14T11:18:23;98854.13;;;36.94;46.68
11349;BME280;5729;43.570;27.826;2023-06-14T11:20:53;98856.47;;;37.17;43.36
11349;BME280;5729;43.570;27.826;2023-06-14T11:23:19;98858.72;;;37.31;45.27
11349;BME280;5729;43.570;27.826;2023-06-14T11:25:53;98854.84;;;37.55;46.40
11349;BME280;5729;43.570;27.826;2023-06-14T11:28:19;98860.97;;;37.88;41.82
11349;BME280;5729;43.570;27.826;2023-06-14T11:30:47;98850.28;;;37.31;37.34
11349;BME280;5729;43.570;27.826;2023-06-14T11:33:17;98854.28;;;37.36;42.17
11349;BME280;5729;43.570;27.826;2023-06-14T11:35:43;98849.97;;;37.56;41.53
11349;BME280;5729;43.570;27.826;2023-06-14T11:38:10;98860.03;;;37.04;38.50
11349;BME280;5729;43.570;27.826;2023-06-14T11:40:37;98859.78;;;35.96;37.78
11349;BME280;5729;43.570;27.826;2023-06-14T11:43:03;98857.44;;;35.12;38.86
11349;BME280;5729;43.570;27.826;2023-06-14T11:45:30;98868.34;;;34.00;41.74
11349;BME280;5729;43.570;27.826;2023-06-14T11:47:58;98863.63;;;33.48;45.38
11349;BME280;5729;43.570;27.826;2023-06-14T11:50:25;98878.78;;;33.17;45.57
11349;BME280;5729;43.570;27.826;2023-06-14T11:52:57;98857.91;;;32.71;47.32
11349;BME280;5729;43.570;27.826;2023-06-14T11:55:23;98860.53;;;32.36;52.82
11349;BME280;5729;43.570;27.826;2023-06-14T11:57:49;98850.91;;;31.98;53.67
11349;BME280;5729;43.570;27.826;2023-06-14T12:00:16;98854.22;;;31.85;52.23
11349;BME280;5729;43.570;27.826;2023-06-14T12:02:42;98845.88;;;31.68;54.84
11349;BME280;5729;43.570;27.826;2023-06-14T12:05:09;98839.50;;;31.96;77.22
11349;BME280;5729;43.570;27.826;2023-06-14T12:07:38;98831.66;;;32.22;61.13
11349;BME280;5729;43.570;27.826;2023-06-14T12:10:08;98839.44;;;32.46;70.89
11349;BME280;5729;43.570;27.826;2023-06-14T12:12:38;98845.97;;;32.65;49.97
11349;BME280;5729;43.570;27.826;2023-06-14T12:15:07;98832.91;;;32.16;51.70
11349;BME280;5729;43.570;27.826;2023-06-14T12:17:36;98845.34;;;31.70;49.63
11349;BME280;5729;43.570;27.826;2023-06-14T12:20:10;98842.69;;;31.11;51.17
11349;BME280;5729;43.570;27.826;2023-06-14T12:22:37;98842.59;;;30.94;55.09
11349;BME280;5729;43.570;27.826;2023-06-14T12:25:04;98834.91;;;31.43;52.28
11349;BME280;5729;43.570;27.826;2023-06-14T12:27:29;98825.34;;;31.94;74.32
11349;BME280;5729;43.570;27.826;2023-06-14T12:30:02;98817.44;;;32.26;83.23
11349;BME280;5729;43.570;27.826;2023-06-14T12:32:28;98815.50;;;32.84;67.27
11349;BME280;5729;43.570;27.826;2023-06-14T12:34:54;98820.47;;;33.43;72.31
11349;BME280;5729;43.570;27.826;2023-06-14T12:37:20;98816.31;;;33.56;62.33
11349;BME280;5729;43.570;27.826;2023-06-14T12:39:45;98815.06;;;33.15;49.03
11349;BME280;5729;43.570;27.826;2023-06-14T12:42:11;98814.50;;;32.70;51.52
11349;BME280;5729;43.570;27.826;2023-06-14T12:44:38;98813.00;;;32.69;56.85
11349;BME280;5729;43.570;27.826;2023-06-14T12:47:06;98816.22;;;32.85;48.18
11349;BME280;5729;43.570;27.826;2023-06-14T12:49:32;98822.47;;;32.44;47.61
11349;BME280;5729;43.570;27.826;2023-06-14T12:51:58;98816.69;;;32.14;52.23
11349;BME280;5729;43.570;27.826;2023-06-14T12:54:23;98807.88;;;31.82;49.26
11349;BME280;5729;43.570;27.826;2023-06-14T12:56:51;98807.56;;;31.35;51.21
11349;BME280;5729;43.570;27.826;2023-06-14T12:59:17;98803.00;;;31.21;59.28
11349;BME280;5729;43.570;27.826;2023-06-14T13:01:43;98801.72;;;31.17;67.77
11349;BME280;5729;43.570;27.826;2023-06-14T13:04:10;98798.97;;;31.50;63.81
11349;BME280;5729;43.570;27.826;2023-06-14T13:06:36;98793.91;;;31.88;64.13
11349;BME280;5729;43.570;27.826;2023-06-14T13:09:01;98800.00;;;31.92;61.73
11349;BME280;5729;43.570;27.826;2023-06-14T13:11:29;98799.97;;;31.97;53.86
11349;BME280;5729;43.570;27.826;2023-06-14T13:13:54;98798.91;;;32.17;54.50
11349;BME280;5729;43.570;27.826;2023-06-14T13:16:20;98781.97;;;32.15;66.74
11349;BME280;5729;43.570;27.826;2023-06-14T13:18:46;98790.34;;;32.04;57.18
11349;BME280;5729;43.570;27.826;2023-06-14T13:21:11;98794.59;;;32.33;70.99
11349;BME280;5729;43.570;27.826;2023-06-14T13:23:37;98791.66;;;32.83;54.93
11349;BME280;5729;43.570;27.826;2023-06-14T13:26:02;98801.56;;;33.25;60.23
11349;BME280;5729;43.570;27.826;2023-06-14T13:28:28;98794.91;;;33.34;49.38
11349;BME280;5729;43.570;27.826;2023-06-14T13:30:53;98793.25;;;33.14;54.27